This is the latest recevied weather packets stored in our database for station/object OK2KJT-11. If no packets are shown the sender has not sent any weather packets the latest 10 day(s).
| Time | Temp. | Humidity | Pressure | Rain* | Wind** | Luminosity | Snow |
|---|---|---|---|---|---|---|---|
| 1787747000 | 20° C | 64% | 1021.4 hPa | - | - | - | - |
| 1787746401 | 18.89° C | 67% | 1021.5 hPa | - | - | - | - |
| 1787745801 | 18.89° C | 67% | 1021.5 hPa | - | - | - | - |
| 1787745197 | 18.89° C | 66% | 1021.5 hPa | - | - | - | - |
| 1787744597 | 19.44° C | 67% | 1021.4 hPa | - | - | - | - |
| 1787743998 | 19.44° C | 65% | 1021.4 hPa | - | - | - | - |
| 1787743397 | 20° C | 62% | 1021.4 hPa | - | - | - | - |
| 1787742798 | 20° C | 61% | 1021.4 hPa | - | - | - | - |
| 1787742197 | 20.56° C | 59% | 1021.4 hPa | - | - | - | - |
| 1787741599 | 21.67° C | 57% | 1021.4 hPa | - | - | - | - |
| 1787740998 | 21.67° C | 57% | 1021.4 hPa | - | - | - | - |
| 1787740399 | 21.67° C | 57% | 1021.4 hPa | - | - | - | - |
| 1787739800 | 21.67° C | 57% | 1021.3 hPa | - | - | - | - |
| 1787739201 | 21.67° C | 56% | 1021.5 hPa | - | - | - | - |
| 1787738601 | 23.33° C | 53% | 1021.4 hPa | - | - | - | - |
| 1787738001 | 22.78° C | 52% | 1021.3 hPa | - | - | - | - |
| 1787737401 | 22.78° C | 57% | 1021.3 hPa | - | - | - | - |
| 1787736802 | 22.22° C | 57% | 1021.3 hPa | - | - | - | - |
| 1787736201 | 21.11° C | 59% | 1021.4 hPa | - | - | - | - |
| 1787735602 | 20.56° C | 61% | 1021.2 hPa | - | - | - | - |
| 1787735003 | 20° C | 62% | 1021.1 hPa | - | - | - | - |
| 1787734403 | 19.44° C | 64% | 1021.1 hPa | - | - | - | - |
| 1787733803 | 18.33° C | 69% | 1021.2 hPa | - | - | - | - |
| 1787733203 | 17.22° C | 75% | 1021.2 hPa | - | - | - | - |
| 1787732603 | 17.22° C | 73% | 1021 hPa | - | - | - | - |
* Rain since midnight (hover to see other rain measurements)
** Current wind speed in m/s (hover to see current wind gust speed)